Kezdőlap
METAR-TAF:

METAR-TAF

Repülőterek :

Teherán, Irán

földrajzi szélesség: 35-41N, földrajzi hosszúság: 051-21E, magasság: 1204 m

Jelenlegi meteorológiai megfigyelések

A jelentés 23 perccel ezelõtt készült, 00:30 UTC
Szélcsend
Hőmérséklet 8°C
Páratartalom 81%
Légköri nyomás 1015 hPa
Látótávolság 10 km, vagy több
felhőtlen 1500 m magasságban, és nincs gomolyfelhõ

METAR: OIII 240030Z 00000KT CAVOK 08/05 Q1015 A2997 NOSIG

Idő: 05:23 (00:53 UTC)

Előrejelzés

A jelentés 1 órával és 53 perccel ezelõtt készült, 23:00 UTC
Az előrejelzés 24-én 00 óra UTC és 25-én 06 óra UTC között érvényes
Nyugat-délnyugati szél 8 kt
Látótávolság 10 km, vagy több
felhőtlen 1500 m magasságban, és nincs gomolyfelhõ

TAF: OIII 232300Z 2400/2506 24004MPS CAVOK

Meteorológiai megfigyelések és előrejelzések több, mint 4000 repülőtéren (METAR és TAF jelentéseket).

A térképen piros és sárga pontok jelzik az elérhető meteorológiai állomásokat.

Mozgassa az egeret a pont fölött, hogy megjelenjen az állomás neve.

Azután kattintson az időjárási megfigyelések és előrejelzések megtekintéséhez.

A térkép megváltoztatása: kattintson a fekete keresztel jelölt zöld gombra ráközelítéshez, a vonallal jelölt zöld gombra távolításhoz, vagy a zöld nyilakra a szomszédos térképek eléréséhez.


METAR-TAF: